Time;durP1;ratioP1;P1;durP2;ratioP2;P2;SDS_P1;SDS_P2;PMS_P1;PMS_P2;Temp;Humidity;BMP_temperature;BMP_pressure;BME280_temperature;BME280_humidity;BME280_pressure;Samples;Min_cycle;Max_cycle;Signal;HPM_P1;HPM_P2
2021/01/29 00:02:13;;;;;;;1.93;0.60;;;7.50;99.90;;;;;;5007126;28;20034;-89
2021/01/29 00:04:40;;;;;;;1.80;0.50;;;7.50;99.90;;;;;;5015361;28;20540;-89
2021/01/29 00:07:07;;;;;;;2.57;0.70;;;7.50;99.90;;;;;;5010883;28;20053;-89
2021/01/29 00:09:34;;;;;;;3.73;0.60;;;7.50;99.90;;;;;;5026323;28;20057;-89
2021/01/29 00:12:00;;;;;;;2.97;0.80;;;7.50;99.90;;;;;;5007338;28;20036;-88
2021/01/29 00:14:26;;;;;;;2.03;0.63;;;7.60;99.90;;;;;;5013240;28;20026;-89
2021/01/29 00:16:52;;;;;;;1.87;0.50;;;7.50;99.90;;;;;;5029093;28;20057;-90
2021/01/29 00:19:18;;;;;;;0.90;0.50;;;7.50;99.90;;;;;;5029357;28;20036;-88
2021/01/29 00:21:43;;;;;;;0.97;0.40;;;7.60;99.90;;;;;;5012672;28;20053;-88
2021/01/29 00:24:09;;;;;;;2.47;0.90;;;7.60;99.90;;;;;;5006256;28;20088;-89
2021/01/29 00:26:35;;;;;;;3.30;0.77;;;7.50;99.90;;;;;;5004488;28;20029;-88
2021/01/29 00:29:01;;;;;;;1.57;0.50;;;7.50;99.90;;;;;;5006758;28;20044;-89
2021/01/29 00:31:26;;;;;;;1.50;0.50;;;7.50;99.90;;;;;;5011021;28;20026;-89
2021/01/29 00:33:52;;;;;;;1.33;0.50;;;7.50;99.90;;;;;;5025759;28;20029;-89
2021/01/29 00:36:18;;;;;;;1.67;0.33;;;7.40;99.90;;;;;;5012091;28;20497;-89
2021/01/29 00:38:43;;;;;;;1.53;0.47;;;7.40;99.90;;;;;;5027808;28;20081;-89
2021/01/29 00:41:09;;;;;;;1.73;0.70;;;7.20;99.90;;;;;;5007094;28;20376;-89
2021/01/29 00:43:35;;;;;;;1.77;0.50;;;7.30;99.90;;;;;;5011000;28;20034;-89
2021/01/29 00:46:01;;;;;;;1.63;0.53;;;7.30;99.90;;;;;;5005869;28;20033;-87
2021/01/29 00:48:26;;;;;;;3.87;0.60;;;7.30;99.90;;;;;;5011150;28;20466;-87
2021/01/29 00:50:52;;;;;;;0.93;0.40;;;7.40;99.90;;;;;;5007573;28;20029;-87
2021/01/29 00:53:18;;;;;;;1.50;0.50;;;7.40;99.90;;;;;;5008867;28;20029;-87
2021/01/29 00:55:43;;;;;;;2.20;0.50;;;7.50;99.90;;;;;;5007555;28;20494;-87
2021/01/29 00:58:09;;;;;;;1.00;0.40;;;7.50;99.90;;;;;;5026289;28;20022;-87
2021/01/29 01:00:35;;;;;;;2.60;0.50;;;7.50;99.90;;;;;;5015462;28;20402;-87
2021/01/29 01:03:00;;;;;;;1.77;0.63;;;7.60;99.90;;;;;;5005742;28;20494;-87
2021/01/29 01:05:27;;;;;;;1.33;0.50;;;7.60;99.90;;;;;;5003551;28;20030;-87
2021/01/29 01:07:53;;;;;;;4.07;0.90;;;7.60;99.90;;;;;;5024890;28;20030;-87
2021/01/29 01:10:21;;;;;;;3.07;0.50;;;7.70;99.90;;;;;;5004090;28;20025;-87
2021/01/29 01:12:47;;;;;;;4.13;0.50;;;7.70;99.90;;;;;;5021484;28;20029;-87
2021/01/29 01:15:23;;;;;;;2.63;0.73;;;7.80;99.90;;;;;;5022865;28;20386;-87
2021/01/29 01:17:50;;;;;;;1.33;0.50;;;7.80;99.90;;;;;;5029817;28;20026;-87
2021/01/29 01:20:19;;;;;;;2.23;0.57;;;7.70;99.90;;;;;;4998760;28;20482;-88
2021/01/29 01:22:45;;;;;;;1.23;0.50;;;7.80;99.90;;;;;;5012473;28;20029;-87
2021/01/29 01:25:11;;;;;;;2.47;0.60;;;7.80;99.90;;;;;;5005229;28;20425;-88
2021/01/29 01:27:37;;;;;;;1.97;0.60;;;7.80;99.90;;;;;;5005095;28;20026;-88
2021/01/29 01:30:13;;;;;;;2.60;0.60;;;7.80;99.90;;;;;;5028719;28;20022;-87
2021/01/29 01:32:38;;;;;;;1.47;0.50;;;7.80;99.90;;;;;;5000882;28;20125;-87
2021/01/29 01:35:05;;;;;;;0.97;0.43;;;7.80;99.90;;;;;;5012132;28;20538;-87
2021/01/29 01:37:31;;;;;;;2.97;0.60;;;7.80;99.90;;;;;;5018843;28;20025;-87
2021/01/29 01:39:57;;;;;;;2.53;0.60;;;7.70;99.90;;;;;;5006957;28;20507;-88
2021/01/29 01:42:23;;;;;;;1.87;0.63;;;7.70;99.90;;;;;;5008084;28;20430;-87
2021/01/29 01:44:48;;;;;;;2.00;0.70;;;7.70;99.90;;;;;;5007213;28;20030;-87
2021/01/29 01:47:35;;;;;;;2.63;0.70;;;7.70;99.90;;;;;;5010946;28;20022;-88
2021/01/29 01:50:27;;;;;;;2.07;0.60;;;7.70;99.90;;;;;;5002840;28;20030;-87
2021/01/29 01:52:55;;;;;;;1.48;0.55;;;7.60;99.90;;;;;;5007097;28;20108;-88
2021/01/29 01:55:25;;;;;;;1.80;0.60;;;7.70;99.90;;;;;;5025839;28;20030;-87
2021/01/29 01:57:54;;;;;;;1.93;0.60;;;7.70;99.90;;;;;;5006516;28;20032;-87
2021/01/29 02:00:26;;;;;;;0.90;0.47;;;7.70;99.90;;;;;;5003570;28;20045;-87
2021/01/29 02:02:59;;;;;;;3.15;0.47;;;7.60;99.90;;;;;;5022788;28;20458;-88
2021/01/29 02:05:31;;;;;;;1.83;0.53;;;7.70;99.90;;;;;;5007975;28;20037;-87
2021/01/29 02:07:59;;;;;;;1.90;0.50;;;7.70;99.90;;;;;;5030338;28;20018;-88
2021/01/29 02:10:27;;;;;;;2.77;0.60;;;7.70;99.90;;;;;;5024432;28;20021;-87
2021/01/29 02:12:53;;;;;;;2.27;0.40;;;7.70;99.90;;;;;;5006170;28;20566;-86
2021/01/29 02:15:21;;;;;;;1.67;0.50;;;7.60;99.90;;;;;;5007856;28;20116;-87
2021/01/29 02:18:10;;;;;;;1.40;0.50;;;7.70;99.90;;;;;;5024573;28;20025;-87
2021/01/29 02:21:12;;;;;;;2.93;0.40;;;7.60;99.90;;;;;;5007499;28;20026;-86
2021/01/29 02:24:00;;;;;;;2.25;0.40;;;7.60;99.90;;;;;;5000275;28;20022;-87
2021/01/29 02:26:41;;;;;;;2.60;0.50;;;7.70;99.90;;;;;;5005453;28;20037;-87
2021/01/29 02:29:42;;;;;;;2.23;0.50;;;7.60;99.90;;;;;;5007376;28;20668;-87
2021/01/29 02:32:26;;;;;;;0.93;0.40;;;7.60;99.90;;;;;;4995339;28;20029;-87
2021/01/29 02:35:22;;;;;;;1.57;0.30;;;7.70;99.90;;;;;;5024970;28;20060;-87
2021/01/29 02:38:17;;;;;;;0.90;0.33;;;7.70;99.90;;;;;;5030196;28;20093;-87
2021/01/29 02:41:00;;;;;;;1.73;0.53;;;7.70;99.90;;;;;;5020958;28;20526;-87
2021/01/29 02:43:38;;;;;;;1.77;0.60;;;7.70;99.90;;;;;;5005299;28;20029;-88
2021/01/29 02:46:10;;;;;;;2.10;0.60;;;7.70;99.90;;;;;;5027606;28;20100;-88
2021/01/29 02:48:36;;;;;;;;;;;7.70;99.90;;;;;;5000013;28;20030;-87
2021/01/29 02:51:28;;;;;;;0.67;0.27;;;7.80;99.90;;;;;;5002590;28;20314;-87
2021/01/29 02:53:57;;;;;;;0.95;0.20;;;7.80;99.90;;;;;;5017603;28;20026;-88
2021/01/29 02:56:36;;;;;;;4.07;0.33;;;7.80;99.90;;;;;;5027418;28;20049;-88
2021/01/29 02:59:07;;;;;;;2.13;0.37;;;7.70;99.90;;;;;;5006581;28;20029;-88
2021/01/29 03:01:43;;;;;;;0.55;0.20;;;7.80;99.90;;;;;;5011608;28;20525;-87
2021/01/29 03:04:19;;;;;;;0.50;0.20;;;7.80;99.90;;;;;;5003589;28;20045;-86
2021/01/29 03:06:52;;;;;;;0.77;0.20;;;7.80;99.90;;;;;;5008072;28;20085;-87
2021/01/29 03:09:27;;;;;;;0.37;0.20;;;7.80;99.90;;;;;;5003530;28;20482;-86
2021/01/29 03:12:11;;;;;;;1.33;0.20;;;7.80;99.90;;;;;;5004160;28;20537;-88
2021/01/29 03:14:45;;;;;;;0.30;0.13;;;7.80;99.90;;;;;;5005812;28;20080;-88
2021/01/29 03:17:42;;;;;;;0.30;0.13;;;7.80;99.90;;;;;;5016122;28;20081;-88
2021/01/29 03:20:19;;;;;;;2.50;0.40;;;7.70;99.90;;;;;;5000881;28;20057;-86
2021/01/29 03:22:53;;;;;;;1.30;0.27;;;7.70;99.90;;;;;;4998579;28;20040;-87
2021/01/29 03:25:22;;;;;;;1.17;0.50;;;7.80;99.90;;;;;;5006061;28;20030;-87
2021/01/29 03:27:52;;;;;;;0.97;0.30;;;7.80;99.90;;;;;;5008386;28;20029;-88
2021/01/29 03:30:25;;;;;;;1.53;0.30;;;7.70;99.90;;;;;;5004102;28;20030;-88
2021/01/29 03:32:53;;;;;;;0.85;0.20;;;7.80;99.90;;;;;;5024015;28;20634;-88
2021/01/29 03:35:27;;;;;;;1.97;0.20;;;7.70;99.90;;;;;;5023324;28;20017;-87
2021/01/29 03:38:08;;;;;;;0.40;0.20;;;7.80;99.90;;;;;;5011979;28;20018;-87
2021/01/29 03:40:37;;;;;;;0.60;0.20;;;7.80;99.90;;;;;;5014865;28;20026;-88
2021/01/29 03:43:13;;;;;;;0.20;0.10;;;7.80;99.90;;;;;;5007984;28;20025;-88
2021/01/29 03:46:00;;;;;;;2.73;0.30;;;7.90;99.90;;;;;;5004794;28;20025;-88
2021/01/29 03:48:35;;;;;;;0.93;0.30;;;7.90;99.90;;;;;;5020677;28;20096;-87
2021/01/29 03:51:00;;;;;;;2.10;0.30;;;7.90;99.90;;;;;;4999236;28;20483;-88
2021/01/29 03:53:54;;;;;;;0.63;0.30;;;7.90;99.90;;;;;;5027792;28;20021;-88
2021/01/29 03:56:45;;;;;;;1.70;0.30;;;8.00;99.90;;;;;;5007308;28;20482;-87
2021/01/29 03:59:50;;;;;;;0.83;0.23;;;8.00;99.90;;;;;;4998376;28;20052;-88
2021/01/29 04:02:30;;;;;;;0.90;0.20;;;7.90;99.90;;;;;;4990137;28;20574;-87
2021/01/29 04:05:54;;;;;;;1.23;0.40;;;8.00;99.90;;;;;;5003958;28;20018;-87
2021/01/29 04:08:33;;;;;;;0.97;0.30;;;7.90;99.90;;;;;;4927752;29;20028;-88
2021/01/29 04:11:04;;;;;;;0.83;0.20;;;7.90;99.90;;;;;;4948659;29;20023;-88
2021/01/29 04:13:41;;;;;;;0.60;0.10;;;7.90;99.90;;;;;;4990728;28;20050;-87
2021/01/29 04:16:13;;;;;;;0.53;0.20;;;8.00;99.90;;;;;;5007393;28;20025;-87
2021/01/29 04:18:46;;;;;;;0.95;0.20;;;8.00;99.90;;;;;;5017514;28;20029;-88
2021/01/29 04:21:21;;;;;;;2.10;0.20;;;8.00;99.90;;;;;;5001431;28;20028;-88
2021/01/29 04:24:09;;;;;;;0.57;0.10;;;7.90;99.90;;;;;;5004337;28;20151;-87
2021/01/29 04:26:56;;;;;;;1.70;0.20;;;7.90;99.90;;;;;;5010377;28;20021;-87
2021/01/29 04:29:42;;;;;;;1.10;0.10;;;7.90;99.90;;;;;;4998011;28;20120;-88
2021/01/29 04:32:14;;;;;;;1.00;0.10;;;7.90;99.90;;;;;;5002037;28;20057;-87
2021/01/29 04:34:43;;;;;;;0.60;0.20;;;7.90;99.90;;;;;;5014114;28;20029;-87
2021/01/29 04:37:15;;;;;;;1.40;0.20;;;7.90;99.90;;;;;;5007140;28;20025;-87
2021/01/29 04:39:44;;;;;;;2.45;0.30;;;7.80;99.90;;;;;;5012309;28;20052;-88
2021/01/29 04:42:16;;;;;;;0.90;0.20;;;7.80;99.90;;;;;;5003874;28;20041;-88
2021/01/29 04:44:53;;;;;;;1.48;0.10;;;7.70;99.90;;;;;;5011797;28;20120;-88
2021/01/29 04:47:24;;;;;;;1.93;0.20;;;7.70;99.90;;;;;;5025503;28;20044;-87
2021/01/29 04:50:06;;;;;;;1.43;0.30;;;7.70;99.90;;;;;;5014589;28;20124;-88
2021/01/29 04:52:59;;;;;;;0.90;0.15;;;7.70;99.90;;;;;;5020611;28;20474;-87
2021/01/29 04:55:35;;;;;;;0.20;0.10;;;7.70;99.90;;;;;;5000573;28;20022;-87
2021/01/29 04:58:07;;;;;;;0.97;0.10;;;7.70;99.90;;;;;;5013701;28;20034;-88
2021/01/29 05:01:07;;;;;;;0.30;0.10;;;7.70;99.90;;;;;;5014276;28;20095;-88
2021/01/29 05:04:03;;;;;;;1.40;0.20;;;7.60;99.90;;;;;;5000970;28;20040;-87
2021/01/29 05:06:50;;;;;;;1.13;0.20;;;7.60;99.90;;;;;;5000389;28;20021;-86
2021/01/29 05:09:57;;;;;;;0.30;0.13;;;7.60;99.90;;;;;;5009911;28;20092;-87
2021/01/29 05:12:32;;;;;;;0.67;0.17;;;7.60;99.90;;;;;;5002155;28;20018;-87
2021/01/29 05:15:18;;;;;;;0.30;0.10;;;7.60;99.90;;;;;;5011493;28;20052;-87
2021/01/29 05:17:49;;;;;;;0.17;0.10;;;7.60;99.90;;;;;;5010577;28;20133;-87
2021/01/29 05:20:33;;;;;;;3.27;0.30;;;7.60;99.90;;;;;;5008051;28;20024;-87
2021/01/29 05:23:23;;;;;;;1.10;0.20;;;7.60;99.90;;;;;;5023468;28;20021;-87
2021/01/29 05:26:22;;;;;;;3.43;0.20;;;7.60;99.90;;;;;;5013301;28;20436;-86
2021/01/29 05:29:07;;;;;;;1.50;0.10;;;7.60;99.90;;;;;;5007687;28;20506;-88
2021/01/29 05:31:32;;;;;;;1.47;0.10;;;7.60;99.90;;;;;;5001082;28;20022;-87
2021/01/29 05:34:23;;;;;;;0.40;0.10;;;7.70;99.90;;;;;;5006067;28;20064;-87
2021/01/29 05:37:26;;;;;;;0.50;0.10;;;7.60;99.90;;;;;;4999292;28;20030;-87
2021/01/29 05:39:57;;;;;;;1.33;0.10;;;7.70;99.90;;;;;;5006213;28;20045;-87
2021/01/29 05:42:57;;;;;;;0.90;0.17;;;7.60;99.90;;;;;;5007046;28;20117;-88
2021/01/29 05:45:42;;;;;;;1.90;0.20;;;7.60;99.90;;;;;;4992350;28;20018;-88
2021/01/29 05:48:45;;;;;;;0.73;0.17;;;7.60;99.90;;;;;;5016545;28;20026;-88
2021/01/29 05:51:21;;;;;;;;;;;7.60;99.90;;;;;;4997344;28;20036;-88
2021/01/29 05:53:59;;;;;;;1.80;0.10;;;7.50;99.90;;;;;;5022324;28;19913;-88
2021/01/29 05:56:38;;;;;;;1.37;0.10;;;7.50;99.90;;;;;;4996048;28;20033;-88
2021/01/29 05:59:42;;;;;;;1.33;0.20;;;7.50;99.90;;;;;;5001344;28;20479;-89
2021/01/29 06:02:40;;;;;;;1.53;0.10;;;7.50;99.90;;;;;;4996833;28;20029;-88
2021/01/29 06:05:25;;;;;;;0.33;0.10;;;7.40;99.90;;;;;;5017452;28;20088;-88
2021/01/29 06:08:16;;;;;;;0.20;0.10;;;7.40;99.90;;;;;;5003519;28;20030;-88
2021/01/29 06:11:00;;;;;;;0.80;0.20;;;7.30;99.90;;;;;;5013691;28;20030;-88
2021/01/29 06:13:49;;;;;;;1.10;0.20;;;7.30;99.90;;;;;;5014422;28;20026;-88
2021/01/29 06:16:45;;;;;;;0.43;0.20;;;7.30;99.90;;;;;;5016797;28;20363;-88
2021/01/29 06:19:32;;;;;;;2.00;0.30;;;7.20;99.90;;;;;;5000026;28;20036;-87
2021/01/29 06:22:00;;;;;;;1.67;0.10;;;7.30;99.90;;;;;;5003539;28;20022;-87
2021/01/29 06:24:49;;;;;;;2.40;0.30;;;7.20;99.90;;;;;;5026586;28;20030;-88
2021/01/29 06:27:42;;;;;;;0.83;0.13;;;7.30;99.90;;;;;;5015138;28;20079;-88
2021/01/29 06:30:47;;;;;;;0.80;0.20;;;7.40;99.90;;;;;;5012885;28;20032;-88
2021/01/29 06:33:36;;;;;;;1.13;0.20;;;7.40;99.90;;;;;;4994885;28;20018;-88
2021/01/29 06:36:15;;;;;;;1.07;0.20;;;7.40;99.90;;;;;;5001416;28;20026;-88
2021/01/29 06:38:50;;;;;;;0.93;0.10;;;7.40;99.90;;;;;;5011737;28;20523;-89
2021/01/29 06:41:28;;;;;;;0.50;0.10;;;7.50;99.90;;;;;;5002751;28;20036;-88
2021/01/29 06:44:08;;;;;;;1.47;0.20;;;7.60;99.90;;;;;;5013491;28;20029;-89
2021/01/29 06:46:50;;;;;;;0.30;0.20;;;7.70;99.90;;;;;;4994528;28;20033;-89
2021/01/29 06:49:32;;;;;;;1.20;0.10;;;7.70;99.90;;;;;;4996598;28;20033;-89
2021/01/29 06:52:36;;;;;;;1.17;0.15;;;7.80;99.90;;;;;;5003016;28;20253;-88
2021/01/29 06:55:43;;;;;;;0.97;0.10;;;7.70;99.90;;;;;;4987419;28;20036;-87
2021/01/29 06:58:28;;;;;;;0.60;0.10;;;7.80;99.90;;;;;;5010246;28;20028;-87
2021/01/29 07:01:31;;;;;;;1.67;0.20;;;7.80;99.90;;;;;;5006181;28;20026;-88
2021/01/29 07:04:14;;;;;;;0.20;0.10;;;7.90;99.90;;;;;;5030397;28;20080;-89
2021/01/29 07:07:01;;;;;;;;;;;7.90;99.90;;;;;;5008237;28;20018;-88
2021/01/29 07:09:30;;;;;;;1.53;0.10;;;8.00;99.90;;;;;;5013336;28;19974;-88
2021/01/29 07:12:26;;;;;;;0.60;0.17;;;8.00;99.90;;;;;;4995748;28;20027;-89
2021/01/29 07:15:15;;;;;;;0.23;0.07;;;7.90;99.90;;;;;;4992046;28;20053;-89
2021/01/29 07:18:14;;;;;;;0.63;0.10;;;7.90;99.90;;;;;;4989627;28;20030;-89
2021/01/29 07:21:02;;;;;;;0.17;0.00;;;7.90;99.90;;;;;;4955077;28;20049;-90
2021/01/29 07:23:53;;;;;;;0.10;0.00;;;7.90;99.90;;;;;;4995284;28;20030;-88
2021/01/29 07:27:08;;;;;;;0.20;0.10;;;7.90;99.90;;;;;;4995721;28;20029;-90
2021/01/29 07:30:00;;;;;;;0.87;0.10;;;8.00;99.90;;;;;;4973125;28;20065;-89
2021/01/29 07:32:37;;;;;;;;;;;8.10;99.90;;;;;;4992814;28;20116;-89
2021/01/29 07:35:18;;;;;;;1.90;0.10;;;8.00;99.90;;;;;;4998157;28;19954;-88
2021/01/29 07:38:02;;;;;;;1.58;0.10;;;8.10;99.90;;;;;;5008298;28;20026;-89
2021/01/29 07:40:51;;;;;;;1.23;0.20;;;8.20;99.90;;;;;;4993803;28;20153;-89
2021/01/29 07:43:35;;;;;;;0.73;0.10;;;8.20;99.90;;;;;;5000362;28;20060;-89
2021/01/29 07:46:25;;;;;;;1.53;0.20;;;8.20;99.90;;;;;;4998239;28;20019;-87
2021/01/29 07:49:27;;;;;;;0.40;0.20;;;8.20;99.90;;;;;;4995633;28;20034;-87
2021/01/29 07:52:30;;;;;;;0.47;0.10;;;8.30;99.90;;;;;;4996056;28;20018;-87
2021/01/29 07:55:30;;;;;;;1.33;0.10;;;8.30;99.90;;;;;;4993294;28;20025;-87
2021/01/29 07:58:05;;;;;;;2.90;0.20;;;8.30;99.90;;;;;;4953789;28;20034;-89
2021/01/29 08:00:43;;;;;;;0.70;0.17;;;8.30;99.90;;;;;;5004122;28;20017;-89
2021/01/29 08:04:03;;;;;;;0.87;0.20;;;8.30;99.90;;;;;;5010437;28;20046;-88
2021/01/29 08:06:32;;;;;;;0.87;0.20;;;8.30;99.90;;;;;;4957119;28;20095;-88
2021/01/29 08:09:22;;;;;;;0.93;0.20;;;8.40;99.90;;;;;;4998733;28;20064;-88
2021/01/29 08:11:56;;;;;;;0.50;0.10;;;8.50;99.90;;;;;;4997069;28;20053;-88
2021/01/29 08:14:33;;;;;;;0.80;0.20;;;8.60;99.90;;;;;;4998927;28;20547;-89
2021/01/29 08:17:17;;;;;;;1.17;0.20;;;8.60;99.90;;;;;;5000118;28;20502;-89
2021/01/29 08:19:58;;;;;;;2.53;0.20;;;8.60;99.90;;;;;;4996815;28;20128;-88
2021/01/29 08:22:36;;;;;;;1.47;0.10;;;8.60;99.90;;;;;;5012260;28;20026;-89
2021/01/29 08:25:15;;;;;;;1.67;0.10;;;8.50;99.90;;;;;;4995745;28;20026;-90
2021/01/29 08:28:10;;;;;;;0.93;0.10;;;8.60;99.90;;;;;;4995771;28;20030;-91
2021/01/29 08:31:14;;;;;;;0.97;0.20;;;8.60;99.90;;;;;;4995867;28;20025;-91
2021/01/29 08:33:47;;;;;;;2.77;0.20;;;8.60;99.90;;;;;;4998124;28;20104;-90
2021/01/29 08:36:22;;;;;;;;;;;8.60;99.90;;;;;;4994620;28;20167;-89
2021/01/29 08:39:05;;;;;;;1.23;0.20;;;8.70;99.90;;;;;;4993916;28;19961;-88
2021/01/29 08:41:34;;;;;;;0.77;0.10;;;8.70;99.90;;;;;;4999361;28;20852;-86
2021/01/29 08:44:12;;;;;;;0.40;0.10;;;8.60;99.90;;;;;;4993020;28;20018;-87
2021/01/29 08:46:40;;;;;;;0.50;0.10;;;8.60;99.90;;;;;;5009764;28;20509;-87
2021/01/29 08:49:27;;;;;;;1.03;0.10;;;8.60;99.90;;;;;;4994415;28;20687;-88
2021/01/29 08:52:00;;;;;;;2.33;0.43;;;8.70;99.90;;;;;;4995924;28;20034;-88
2021/01/29 08:54:48;;;;;;;1.53;0.30;;;8.70;99.90;;;;;;4993745;28;20116;-88
2021/01/29 08:57:28;;;;;;;1.47;0.27;;;8.60;99.90;;;;;;4997169;28;20049;-87
2021/01/29 09:00:00;;;;;;;1.90;0.20;;;8.70;99.90;;;;;;4995205;28;20504;-89
2021/01/29 09:02:52;;;;;;;1.08;0.10;;;8.70;99.90;;;;;;5000087;28;20042;-88
2021/01/29 09:05:23;;;;;;;0.85;0.20;;;8.80;99.90;;;;;;4990582;28;20045;-89
2021/01/29 09:07:59;;;;;;;2.30;0.20;;;8.80;99.90;;;;;;4995483;28;20104;-89
2021/01/29 09:11:03;;;;;;;1.27;0.20;;;8.90;99.90;;;;;;5014090;28;20022;-89
2021/01/29 09:13:31;;;;;;;1.27;0.20;;;8.90;99.90;;;;;;5006594;28;20021;-90
2021/01/29 09:16:05;;;;;;;1.93;0.10;;;8.90;99.90;;;;;;5005191;28;20390;-89
2021/01/29 09:18:49;;;;;;;1.37;0.20;;;8.90;99.90;;;;;;5002952;28;20034;-89
2021/01/29 09:21:18;;;;;;;1.37;0.20;;;8.90;99.90;;;;;;4997004;28;20033;-89
2021/01/29 09:24:10;;;;;;;2.53;0.20;;;8.80;99.90;;;;;;4996516;28;20117;-88
2021/01/29 09:26:55;;;;;;;0.80;0.20;;;8.80;99.90;;;;;;4995685;28;20026;-89
2021/01/29 09:29:28;;;;;;;1.73;0.20;;;8.70;99.90;;;;;;5002913;28;20418;-88
2021/01/29 09:32:07;;;;;;;0.90;0.20;;;8.70;99.90;;;;;;4995709;28;20018;-89
2021/01/29 09:34:48;;;;;;;1.80;0.10;;;8.70;99.90;;;;;;4996091;28;20076;-87
2021/01/29 09:37:24;;;;;;;2.30;0.30;;;8.80;99.90;;;;;;4992658;28;20056;-87
2021/01/29 09:39:54;;;;;;;1.93;0.17;;;8.90;99.90;;;;;;5000045;28;20368;-89
2021/01/29 09:42:43;;;;;;;1.87;0.20;;;9.00;99.90;;;;;;4994675;28;20096;-89
2021/01/29 09:45:16;;;;;;;3.07;0.30;;;9.20;99.90;;;;;;4981640;28;20036;-89
2021/01/29 09:47:45;;;;;;;1.27;0.43;;;9.30;99.90;;;;;;4995314;28;20034;-87
2021/01/29 09:50:20;;;;;;;3.67;0.50;;;9.40;99.90;;;;;;4994479;28;20490;-87
2021/01/29 09:53:07;;;;;;;4.20;0.50;;;9.50;99.90;;;;;;4992729;28;20028;-88
2021/01/29 09:55:40;;;;;;;4.80;0.50;;;9.50;99.90;;;;;;5001579;28;20516;-88
2021/01/29 09:58:07;;;;;;;1.43;0.40;;;9.50;99.90;;;;;;5003577;28;20021;-90
2021/01/29 10:00:39;;;;;;;5.10;0.50;;;9.40;99.90;;;;;;4989246;28;20091;-88
2021/01/29 10:03:42;;;;;;;2.47;0.30;;;9.40;99.90;;;;;;5022961;28;20084;-88
2021/01/29 10:06:19;;;;;;;6.13;0.60;;;9.50;99.90;;;;;;4995287;28;20029;-88
2021/01/29 10:08:51;;;;;;;3.17;0.43;;;9.60;99.90;;;;;;5000355;28;20030;-89
2021/01/29 10:11:24;;;;;;;5.70;1.00;;;9.60;99.90;;;;;;5015026;28;20029;-88
2021/01/29 10:13:52;;;;;;;;;;;9.60;99.90;;;;;;5005151;28;20108;-88
2021/01/29 10:16:30;;;;;;;5.93;0.67;;;9.60;99.90;;;;;;5006577;28;20394;-89
2021/01/29 10:19:14;;;;;;;3.30;0.50;;;9.60;99.90;;;;;;4998201;28;20174;-88
2021/01/29 10:22:07;;;;;;;3.47;0.53;;;9.60;99.90;;;;;;5000247;28;20479;-88
2021/01/29 10:24:38;;;;;;;4.83;0.70;;;9.50;99.90;;;;;;4991651;28;20074;-88
2021/01/29 10:27:45;;;;;;;6.50;1.00;;;9.40;99.90;;;;;;5002644;28;20037;-88
2021/01/29 10:30:41;;;;;;;6.37;0.60;;;9.30;99.90;;;;;;4986279;28;20490;-88
2021/01/29 10:33:37;;;;;;;5.13;0.60;;;9.30;99.90;;;;;;5006765;28;20022;-89
2021/01/29 10:36:30;;;;;;;8.53;0.80;;;9.30;99.90;;;;;;5001981;28;20383;-88
2021/01/29 10:39:10;;;;;;;6.93;0.40;;;9.30;99.90;;;;;;5020740;28;20026;-88
2021/01/29 10:41:47;;;;;;;4.17;0.67;;;9.30;99.90;;;;;;5007553;28;20021;-88
2021/01/29 10:44:21;;;;;;;2.93;0.30;;;9.20;99.90;;;;;;4991217;28;20032;-88
2021/01/29 10:47:12;;;;;;;3.50;0.50;;;9.30;99.90;;;;;;4996271;28;20060;-89
2021/01/29 10:49:58;;;;;;;2.60;0.90;;;9.30;99.90;;;;;;4992992;28;20088;-88
2021/01/29 10:52:36;;;;;;;5.90;0.47;;;9.40;99.90;;;;;;4993392;28;20037;-88
2021/01/29 10:55:12;;;;;;;3.93;0.30;;;9.40;99.90;;;;;;4991737;28;20026;-88
2021/01/29 10:57:51;;;;;;;4.00;0.50;;;9.40;99.90;;;;;;4990245;28;20041;-88
2021/01/29 11:00:20;;;;;;;5.93;0.60;;;9.50;99.90;;;;;;4996002;28;20044;-88
2021/01/29 11:02:52;;;;;;;4.93;0.63;;;9.60;99.90;;;;;;5008136;28;20060;-88
2021/01/29 11:05:24;;;;;;;4.55;0.82;;;9.70;99.90;;;;;;5012843;28;20368;-88
2021/01/29 11:07:53;;;;;;;5.77;0.60;;;9.70;99.90;;;;;;4991492;28;20034;-90
2021/01/29 11:10:22;;;;;;;4.90;0.63;;;9.70;99.90;;;;;;4993641;28;20034;-88
2021/01/29 11:12:59;;;;;;;5.60;0.80;;;9.70;99.90;;;;;;4998384;28;20025;-89
2021/01/29 11:15:37;;;;;;;5.23;0.90;;;9.70;99.90;;;;;;4999158;28;20538;-89
2021/01/29 11:18:32;;;;;;;4.33;0.67;;;9.70;99.90;;;;;;4998340;28;20026;-89
2021/01/29 11:21:32;;;;;;;12.93;1.10;;;9.70;99.90;;;;;;5001235;28;20049;-90
2021/01/29 11:24:10;;;;;;;4.63;0.60;;;9.70;99.90;;;;;;5004098;28;20033;-89
2021/01/29 11:26:46;;;;;;;4.73;0.60;;;9.60;99.90;;;;;;4993175;28;20026;-88
2021/01/29 11:29:23;;;;;;;5.60;0.60;;;9.60;99.90;;;;;;4996128;28;20026;-88
2021/01/29 11:32:27;;;;;;;5.53;0.70;;;9.50;99.90;;;;;;5008932;28;20025;-89
2021/01/29 11:34:58;;;;;;;4.10;0.80;;;9.40;99.90;;;;;;4997998;28;20033;-88
2021/01/29 11:38:07;;;;;;;5.07;0.60;;;9.30;99.90;;;;;;4994975;28;20026;-89
2021/01/29 11:40:39;;;;;;;8.07;0.90;;;9.30;99.90;;;;;;4971569;28;20406;-89
2021/01/29 11:43:47;;;;;;;4.63;0.93;;;9.30;99.90;;;;;;5006059;28;20663;-89
2021/01/29 11:46:30;;;;;;;6.77;0.97;;;9.30;99.90;;;;;;4919478;29;20347;-89
2021/01/29 11:49:02;;;;;;;4.20;0.63;;;9.50;99.90;;;;;;4917324;29;20024;-89
2021/01/29 11:51:36;;;;;;;5.22;0.73;;;9.50;99.90;;;;;;4970855;28;20125;-89
2021/01/29 11:54:11;;;;;;;8.57;0.60;;;9.60;99.90;;;;;;4999696;28;20036;-89
2021/01/29 11:56:59;;;;;;;4.47;0.83;;;9.50;99.90;;;;;;5006535;28;20617;-89
2021/01/29 11:59:37;;;;;;;7.57;0.80;;;9.50;99.90;;;;;;5010078;28;20029;-89
2021/01/29 12:02:24;;;;;;;4.63;0.67;;;9.50;99.90;;;;;;5007466;28;20042;-88
2021/01/29 12:05:17;;;;;;;5.37;0.67;;;9.50;99.90;;;;;;4998835;28;20483;-88
2021/01/29 12:08:04;;;;;;;7.03;0.70;;;9.50;99.90;;;;;;5017971;28;20033;-89
2021/01/29 12:10:32;;;;;;;5.10;0.60;;;9.60;99.90;;;;;;5018764;28;20056;-89
2021/01/29 12:13:18;;;;;;;4.57;0.60;;;9.60;99.90;;;;;;5016241;28;20025;-88
2021/01/29 12:15:54;;;;;;;6.97;0.80;;;9.50;99.90;;;;;;4998850;28;20057;-88
2021/01/29 12:18:21;;;;;;;6.07;0.70;;;9.50;99.90;;;;;;5007722;28;20390;-88
2021/01/29 12:20:48;;;;;;;4.17;0.50;;;9.50;99.90;;;;;;5018418;28;20152;-89
2021/01/29 12:23:35;;;;;;;9.27;0.60;;;9.40;99.90;;;;;;5010989;28;20029;-89
2021/01/29 12:26:32;;;;;;;5.10;0.70;;;9.40;99.90;;;;;;5014701;28;20053;-89
2021/01/29 12:29:25;;;;;;;5.77;0.80;;;9.40;99.90;;;;;;5008594;28;20117;-88
2021/01/29 12:32:24;;;;;;;4.53;0.70;;;9.50;99.90;;;;;;4998879;28;20022;-88
2021/01/29 12:35:16;;;;;;;6.50;0.67;;;9.60;99.90;;;;;;4990269;28;20022;-89
2021/01/29 12:38:08;;;;;;;4.27;0.80;;;9.60;99.90;;;;;;5003576;28;20034;-87
2021/01/29 12:40:56;;;;;;;4.63;0.60;;;9.60;99.90;;;;;;5018849;28;20044;-89
2021/01/29 12:44:09;;;;;;;7.13;0.63;;;9.50;99.90;;;;;;5012727;28;20025;-87
2021/01/29 12:46:55;;;;;;;7.63;0.80;;;9.50;99.90;;;;;;5007500;28;20034;-88
2021/01/29 12:49:39;;;;;;;7.00;1.10;;;9.60;99.90;;;;;;5010122;28;20061;-88
2021/01/29 12:52:21;;;;;;;5.93;0.83;;;9.60;99.90;;;;;;5005668;28;21193;-88
2021/01/29 12:55:02;;;;;;;5.38;0.95;;;9.70;99.90;;;;;;5001988;28;20029;-87
2021/01/29 12:57:30;;;;;;;6.10;0.70;;;9.70;99.90;;;;;;5008822;28;20526;-87
2021/01/29 13:00:10;;;;;;;6.93;0.80;;;9.70;99.90;;;;;;5014853;28;20494;-88
2021/01/29 13:03:08;;;;;;;5.60;0.87;;;9.70;99.90;;;;;;4995508;28;20107;-87
2021/01/29 13:05:49;;;;;;;5.50;0.83;;;9.80;99.90;;;;;;5000513;28;20088;-87
2021/01/29 13:08:43;;;;;;;2.13;0.40;;;9.70;99.90;;;;;;4999404;28;20651;-86
2021/01/29 13:11:30;;;;;;;3.63;0.57;;;9.70;99.90;;;;;;4995613;28;20056;-86
2021/01/29 13:14:28;;;;;;;3.30;0.40;;;9.60;99.90;;;;;;4991878;28;20040;-87
2021/01/29 13:16:57;;;;;;;4.03;0.63;;;9.50;99.90;;;;;;4946499;28;20023;-87
2021/01/29 13:19:29;;;;;;;3.07;0.40;;;9.50;99.90;;;;;;5010882;28;20091;-88
2021/01/29 13:21:58;;;;;;;2.33;0.52;;;9.50;99.90;;;;;;5016130;28;20033;-87
2021/01/29 13:24:29;;;;;;;2.03;0.20;;;9.50;99.90;;;;;;5006584;28;20026;-87
2021/01/29 13:26:59;;;;;;;3.17;0.30;;;9.40;99.90;;;;;;5002709;28;20041;-87
2021/01/29 13:29:31;;;;;;;1.70;0.20;;;9.30;99.90;;;;;;4995137;28;20069;-87
2021/01/29 13:32:12;;;;;;;1.42;0.10;;;9.20;99.90;;;;;;4991729;28;20435;-87
2021/01/29 13:34:43;;;;;;;1.80;0.23;;;9.20;99.90;;;;;;4999035;28;20026;-87
2021/01/29 13:37:29;;;;;;;1.13;0.20;;;9.20;99.90;;;;;;4987464;28;20024;-87
2021/01/29 13:40:08;;;;;;;0.37;0.07;;;9.30;99.90;;;;;;4988525;28;20129;-88
2021/01/29 13:42:37;;;;;;;1.07;0.10;;;9.30;99.90;;;;;;4992672;28;20022;-88
2021/01/29 13:45:16;;;;;;;2.37;0.20;;;9.30;99.90;;;;;;4994451;28;20410;-87
2021/01/29 13:47:48;;;;;;;1.30;0.10;;;9.40;99.90;;;;;;4986026;28;20030;-87
2021/01/29 13:50:41;;;;;;;0.70;0.13;;;9.40;99.90;;;;;;4997211;28;20210;-87
2021/01/29 13:53:12;;;;;;;2.05;0.30;;;9.50;99.90;;;;;;4984361;28;20025;-88
2021/01/29 13:56:03;;;;;;;1.83;0.30;;;9.50;99.90;;;;;;5002886;28;20022;-86
2021/01/29 13:58:55;;;;;;;1.83;0.20;;;9.50;99.90;;;;;;4995069;28;20080;-87
2021/01/29 14:01:35;;;;;;;3.20;0.40;;;9.50;99.90;;;;;;4985757;28;20029;-86
2021/01/29 14:04:14;;;;;;;2.13;0.30;;;9.50;99.90;;;;;;4993239;28;20548;-87
2021/01/29 14:06:39;;;;;;;1.80;0.20;;;9.50;99.90;;;;;;5011291;28;20028;-87